^^
Saratoga-Weather Station Historical Data
Daily Summary for April 2, 2020 Units:  English    Metric   Both
Daily Weekly Monthly Yearly Custom
  High: Low: Average:
Temperature: 57.2 °F 47.8 °F 52.2 °F
Dew Point: 55.2 °F 44.8 °F 50.2 °F
Humidity: 97% 85% 93%
Wind Speed: 13mph 0mph 0.1mph
Wind Gust: 24mph - -
Wind- - West
Pressure: 30 in 29.8 in -
Precipitation: 0.26 in    
Historical Graphs
 
 
Tabular Data for April 2, 2020
Time Temperature Dew Point Pressure Wind Wind Speed Wind Gust Humidity Rainfall Rate (Hourly) solar
00:03 48.4 °F 46.2 °F 29.9 in Calm     92% 0 in 0 W/m2
00:08 48.4 °F 46.2 °F 29.9 in Calm     92% 0 in 0 W/m2
00:13 48.6 °F 46.4 °F 30 in Calm     92% 0 in 0 W/m2
00:18 48.6 °F 46.6 °F 30 in Calm     93% 0 in 0 W/m2
00:23 48.6 °F 46.6 °F 30 in Calm     93% 0 in 0 W/m2
00:28 48.6 °F 46.6 °F 30 in Calm     93% 0 in 0 W/m2
00:33 48.6 °F 46.6 °F 30 in Calm     93% 0 in 0 W/m2
00:38 48.6 °F 46.4 °F 30 in Calm     92% 0 in 0 W/m2
00:43 48.6 °F 46.4 °F 30 in Calm     92% 0 in 0 W/m2
00:48 48.6 °F 46.4 °F 30 in Calm     92% 0 in 0 W/m2
00:53 48.6 °F 46.6 °F 30 in Calm     93% 0 in 0 W/m2
00:58 48.6 °F 46.4 °F 30 in Calm     92% 0 in 0 W/m2
01:03 48.4 °F 46.2 °F 30 in Calm     92% 0 in 0 W/m2
01:08 48.4 °F 46.2 °F 30 in Calm     92% 0 in 0 W/m2
01:13 48.4 °F 45.9 °F 30 in Calm     91% 0 in 0 W/m2
01:18 48.6 °F 46 °F 30 in Calm     91% 0 in 0 W/m2
01:23 48.4 °F 45.5 °F 30 in Calm     90% 0 in 0 W/m2
01:28 48 °F 45.1 °F 30 in Calm     90% 0 in 0 W/m2
01:33 47.8 °F 45 °F 30 in Calm     90% 0 in 0 W/m2
01:38 47.8 °F 44.8 °F 30 in Calm   1 mph 89% 0 in 0 W/m2
01:43 48 °F 45 °F 30 in Calm     89% 0 in 0 W/m2
01:48 48 °F 45 °F 30 in Calm   1 mph 89% 0 in 0 W/m2
01:53 47.8 °F 45 °F 30 in Calm     90% 0 in 0 W/m2
01:58 47.8 °F 45 °F 30 in Calm     90% 0 in 0 W/m2
02:03 47.8 °F 45 °F 30 in Calm     90% 0 in 0 W/m2
02:08 48 °F 45.5 °F 30 in Calm     91% 0 in 0 W/m2
02:13 48.2 °F 45.7 °F 30 in Calm     91% 0 in 0 W/m2
02:18 48.4 °F 45.5 °F 30 in Calm     90% 0 in 0 W/m2
02:23 48 °F 45.1 °F 30 in Calm   1 mph 90% 0 in 0 W/m2
02:28 48 °F 45.5 °F 30 in Calm     91% 0 in 0 W/m2
02:34 47.8 °F 45.3 °F 30 in Calm     91% 0 in 0 W/m2
02:39 47.8 °F 45.3 °F 30 in Calm     91% 0 in 0 W/m2
02:44 47.8 °F 45.7 °F 30 in Calm     92% 0 in 0 W/m2
02:49 47.8 °F 45.7 °F 30 in Calm     92% 0 in 0 W/m2
02:54 47.8 °F 45.7 °F 30 in Calm     92% 0 in 0 W/m2
02:59 48 °F 45.9 °F 30 in Calm     92% 0 in 0 W/m2
03:04 48 °F 45.9 °F 30 in Calm     92% 0 in 0 W/m2
03:09 48.2 °F 46 °F 30 in Calm     92% 0 in 0 W/m2
03:14 48.4 °F 46.2 °F 30 in Calm     92% 0 in 0 W/m2
03:19 48.4 °F 46.2 °F 30 in Calm     92% 0 in 0 W/m2
03:24 48.4 °F 46.2 °F 30 in Calm     92% 0 in 0 W/m2
03:29 48.6 °F 46.4 °F 30 in Calm     92% 0 in 0 W/m2
03:34 48.6 °F 46.6 °F 30 in Calm     93% 0 in 0 W/m2
03:39 48.6 °F 46.6 °F 30 in Calm     93% 0 in 0 W/m2
03:44 48.6 °F 46.6 °F 30 in Calm     93% 0 in 0 W/m2
03:49 48.6 °F 46.6 °F 30 in Calm     93% 0 in 0 W/m2
03:54 48.6 °F 46.9 °F 30 in Calm     94% 0 in 0 W/m2
03:59 48.6 °F 46.9 °F 30 in Calm     94% 0.01 in 0 W/m2
04:04 48.6 °F 46.9 °F 29.9 in Calm     94% 0.01 in 0 W/m2
04:09 48.6 °F 46.9 °F 29.9 in Calm     94% 0.02 in 0 W/m2
04:14 48.4 °F 46.8 °F 29.9 in Calm     94% 0.02 in 0 W/m2
04:19 48.4 °F 46.8 °F 29.9 in Calm     94% 0.02 in 0 W/m2
04:24 48 °F 46.6 °F 29.9 in Calm     95% 0.02 in 0 W/m2
04:29 48 °F 46.6 °F 29.9 in Calm     95% 0.02 in 0 W/m2
04:34 47.8 °F 46.4 °F 29.9 in Calm     95% 0.02 in 0 W/m2
04:39 47.8 °F 46.4 °F 29.9 in Calm     95% 0.02 in 0 W/m2
04:44 47.8 °F 46.4 °F 29.9 in Calm     95% 0.02 in 0 W/m2
04:49 47.8 °F 46.8 °F 29.9 in Calm     96% 0.02 in 0 W/m2
04:54 47.8 °F 46.8 °F 29.9 in Calm     96% 0.02 in 0 W/m2
04:59 47.8 °F 46.8 °F 29.9 in Calm     96% 0.02 in 0 W/m2
05:04 48.2 °F 47.1 °F 29.9 in Calm     96% 0.02 in 0 W/m2
05:09 48.6 °F 47.5 °F 29.9 in Calm     96% 0.02 in 0 W/m2
05:14 48.9 °F 48 °F 29.9 in Calm     97% 0.02 in 0 W/m2
05:19 49.1 °F 48 °F 29.9 in Calm     96% 0.02 in 0 W/m2
05:24 49.3 °F 48.2 °F 29.9 in Calm     96% 0.02 in 0 W/m2
05:29 49.5 °F 48.6 °F 29.9 in Calm     97% 0.02 in 0 W/m2
05:34 49.5 °F 48.4 °F 29.9 in Calm     96% 0.02 in 0 W/m2
05:39 49.6 °F 48.6 °F 29.9 in Calm     96% 0.02 in 0 W/m2
05:44 49.6 °F 48.6 °F 29.9 in Calm     96% 0.02 in 0 W/m2
05:49 49.6 °F 48.6 °F 29.9 in Calm     96% 0.02 in 0 W/m2
05:54 49.6 °F 48.6 °F 29.9 in Calm     96% 0.02 in 0 W/m2
05:59 49.6 °F 48.6 °F 29.9 in Calm     96% 0.02 in 0 W/m2
06:04 49.8 °F 48.7 °F 29.9 in Calm     96% 0.02 in 0 W/m2
06:09 49.8 °F 48.7 °F 29.9 in Calm     96% 0.02 in 0 W/m2
06:14 49.8 °F 48.7 °F 29.9 in Calm     96% 0.02 in 0 W/m2
06:19 49.8 °F 48.7 °F 29.9 in Calm     96% 0.02 in 0 W/m2
06:24 49.8 °F 48.7 °F 29.9 in Calm     96% 0.03 in 0 W/m2
06:29 49.8 °F 48.7 °F 29.9 in Calm     96% 0.03 in 0 W/m2
06:34 50 °F 48.9 °F 29.9 in Calm     96% 0.04 in 0 W/m2
06:39 50 °F 48.9 °F 29.9 in Calm     96% 0.05 in 0 W/m2
06:44 50 °F 48.9 °F 29.9 in Calm     96% 0.04 in 0 W/m2
06:49 50 °F 48.9 °F 29.9 in Calm     96% 0.04 in 0 W/m2
06:54 49.8 °F 48.7 °F 29.9 in Calm     96% 0.05 in 0 W/m2
06:59 50 °F 48.9 °F 29.9 in Calm     96% 0.04 in 0 W/m2
07:05 50 °F 48.9 °F 29.9 in Calm     96% 0.05 in 0 W/m2
07:10 50 °F 48.9 °F 29.9 in Calm     96% 0.04 in 0 W/m2
07:15 50 °F 48.9 °F 29.9 in Calm     96% 0.04 in 0 W/m2
07:20 50 °F 48.9 °F 29.9 in Calm     96% 0.04 in 0 W/m2
07:25 50 °F 48.9 °F 29.9 in Calm     96% 0.04 in 0 W/m2
07:30 50 °F 48.9 °F 29.9 in Calm     96% 0.04 in 0 W/m2
07:35 50 °F 48.9 °F 29.9 in Calm     96% 0.03 in 0 W/m2
07:40 50 °F 48.9 °F 29.9 in Calm     96% 0.02 in 0 W/m2
07:45 50 °F 48.9 °F 29.9 in Calm     96% 0.02 in 0 W/m2
07:50 50.2 °F 49.1 °F 29.9 in Calm     96% 0.02 in 0 W/m2
07:55 50 °F 48.9 °F 29.9 in Calm     96% 0.02 in 0 W/m2
08:00 50 °F 48.9 °F 29.9 in Calm     96% 0.02 in 0 W/m2
08:05 50.2 °F 49.1 °F 29.8 in Calm     96% 0.01 in 0 W/m2
08:10 50.2 °F 49.1 °F 29.8 in Calm     96% 0.02 in 0 W/m2
08:15 50.2 °F 49.1 °F 29.8 in Calm   1 mph 96% 0.02 in 0 W/m2
08:21 50.2 °F 49.1 °F 29.8 in Calm     96% 0.02 in 0 W/m2
08:26 50.2 °F 49.1 °F 29.8 in Calm   1 mph 96% 0.01 in 5 W/m2
08:31 50.2 °F 48.7 °F 29.8 in Calm     95% 0.02 in 0 W/m2
08:36 50.2 °F 49.1 °F 29.8 in Calm     96% 0.02 in 5 W/m2
08:41 50.2 °F 49.1 °F 29.8 in Calm     96% 0.02 in 9 W/m2
08:46 50.2 °F 49.1 °F 29.8 in Calm     96% 0.02 in 9 W/m2
08:51 50.4 °F 49.3 °F 29.8 in Calm     96% 0.03 in 11 W/m2
08:56 50.4 °F 49.3 °F 29.8 in Calm     96% 0.03 in 11 W/m2
09:01 50.4 °F 49.3 °F 29.8 in Calm     96% 0.04 in 18 W/m2
09:06 50.5 °F 49.5 °F 29.8 in Calm     96% 0.04 in 25 W/m2
09:11 50.5 °F 49.5 °F 29.8 in Calm     96% 0.03 in 19 W/m2
09:16 50.5 °F 49.5 °F 29.8 in Calm   1 mph 96% 0.03 in 12 W/m2
09:21 50.7 °F 49.6 °F 29.8 in Calm     96% 0.03 in 19 W/m2
09:26 50.7 °F 49.6 °F 29.8 in Calm     96% 0.03 in 21 W/m2
09:31 50.9 °F 49.8 °F 29.8 in Calm     96% 0.02 in 33 W/m2
09:36 51.1 °F 50 °F 29.8 in Calm     96% 0.02 in 26 W/m2
09:41 51.1 °F 50 °F 29.8 in Calm     96% 0.02 in 33 W/m2
09:46 51.3 °F 50.2 °F 29.8 in Calm     96% 0.02 in 28 W/m2
09:51 51.3 °F 50.2 °F 29.8 in Calm     96% 0.02 in 28 W/m2
09:56 51.3 °F 50.2 °F 29.8 in Calm     96% 0.02 in 30 W/m2
10:01 51.4 °F 50.4 °F 29.8 in Calm   4 mph 96% 0.01 in 28 W/m2
10:06 51.4 °F 50.4 °F 29.8 in Calm     96% 0.01 in 40 W/m2
10:11 51.6 °F 50.5 °F 29.8 in WNW 4 mph 4 mph 96% 0.01 in 28 W/m2
10:16 51.6 °F 50.5 °F 29.8 in Calm     96% 0.01 in 35 W/m2
10:21 51.6 °F 50.5 °F 29.8 in Calm     96% 0.01 in 32 W/m2
10:26 51.8 °F 50.7 °F 29.8 in Calm     96% 0.02 in 39 W/m2
10:31 52 °F 50.9 °F 29.8 in Calm     96% 0.01 in 37 W/m2
10:36 52 °F 50.9 °F 29.8 in Calm     96% 0.02 in 47 W/m2
10:41 52 °F 50.9 °F 29.8 in Calm     96% 0.02 in 40 W/m2
10:46 52.2 °F 51.1 °F 29.8 in Calm     96% 0.02 in 44 W/m2
10:52 52.2 °F 51.1 °F 29.8 in Calm     96% 0.02 in 56 W/m2
10:57 52.2 °F 51.1 °F 29.8 in Calm     96% 0.02 in 72 W/m2
11:02 52.3 °F 51.3 °F 29.8 in Calm     96% 0.03 in 65 W/m2
11:07 52.3 °F 51.3 °F 29.8 in Calm     96% 0.03 in 53 W/m2
11:12 52.5 °F 51.4 °F 29.8 in Calm     96% 0.03 in 58 W/m2
11:17 52.5 °F 51.4 °F 29.8 in Calm     96% 0.03 in 76 W/m2
11:22 52.9 °F 51.8 °F 29.8 in Calm     96% 0.03 in 79 W/m2
11:27 53.1 °F 52 °F 29.8 in Calm     96% 0.02 in 74 W/m2
11:32 53.1 °F 52 °F 29.8 in Calm     96% 0.02 in 88 W/m2
11:37 53.2 °F 52.2 °F 29.8 in Calm     96% 0.02 in 77 W/m2
11:42 53.4 °F 52.3 °F 29.8 in Calm     96% 0.02 in 69 W/m2
11:47 53.4 °F 52.3 °F 29.8 in Calm     96% 0.01 in 62 W/m2
11:52 53.6 °F 52.5 °F 29.8 in Calm     96% 0.01 in 69 W/m2
11:57 53.8 °F 52.7 °F 29.8 in Calm     96% 0.01 in 63 W/m2
12:02 53.8 °F 52.7 °F 29.8 in Calm     96% 0 in 63 W/m2
12:07 54 °F 52.9 °F 29.8 in Calm     96% 0 in 83 W/m2
12:12 54 °F 52.9 °F 29.8 in Calm     96% 0 in 95 W/m2
12:17 54.1 °F 53.1 °F 29.8 in Calm     96% 0 in 116 W/m2
12:22 54.3 °F 53.2 °F 29.8 in Calm     96% 0 in 123 W/m2
12:27 54.5 °F 53.4 °F 29.8 in Calm     96% 0 in 114 W/m2
12:32 54.7 °F 53.6 °F 29.8 in Calm     96% 0 in 107 W/m2
12:37 54.9 °F 53.8 °F 29.8 in Calm     96% 0 in 146 W/m2
12:42 55 °F 53.6 °F 29.8 in Calm   3 mph 95% 0 in 114 W/m2
12:47 55 °F 53.6 °F 29.8 in Calm   7 mph 95% 0 in 93 W/m2
12:52 55.2 °F 53.8 °F 29.8 in Calm     95% 0 in 141 W/m2
12:57 55.4 °F 54 °F 29.8 in West 13 mph 13 mph 95% 0 in 111 W/m2
13:02 55.4 °F 54 °F 29.8 in Calm   1 mph 95% 0 in 81 W/m2
13:07 55.4 °F 54 °F 29.8 in Calm     95% 0 in 102 W/m2
13:12 55.6 °F 54.1 °F 29.8 in Calm   19 mph 95% 0 in 84 W/m2
13:17 55.6 °F 54.1 °F 29.8 in Calm     95% 0 in 63 W/m2
13:22 55.6 °F 54.1 °F 29.8 in Calm     95% 0 in 84 W/m2
13:27 55.6 °F 54.1 °F 29.8 in Calm     95% 0 in 91 W/m2
13:32 55.6 °F 54.1 °F 29.8 in Calm   2 mph 95% 0 in 95 W/m2
13:37 55.8 °F 54.3 °F 29.8 in Calm     95% 0 in 109 W/m2
13:42 55.8 °F 54.3 °F 29.8 in Calm   2 mph 95% 0 in 100 W/m2
13:47 55.9 °F 54.5 °F 29.8 in Calm   6 mph 95% 0 in 83 W/m2
13:52 55.9 °F 54.5 °F 29.8 in Calm     95% 0 in 93 W/m2
13:57 56.1 °F 54.7 °F 29.8 in Calm   3 mph 95% 0 in 114 W/m2
14:02 56.1 °F 54.7 °F 29.8 in SW 4.9 mph 5 mph 95% 0 in 105 W/m2
14:07 56.5 °F 55 °F 29.8 in Calm   1 mph 95% 0 in 93 W/m2
14:12 56.5 °F 55 °F 29.8 in Calm   4 mph 95% 0 in 91 W/m2
14:17 56.7 °F 55 °F 29.8 in Calm     94% 0 in 102 W/m2
14:22 56.7 °F 55 °F 29.8 in Calm   18 mph 94% 0 in 62 W/m2
14:27 56.8 °F 55.2 °F 29.8 in WNW 2 mph 24 mph 94% 0 in 95 W/m2
14:32 56.8 °F 54.9 °F 29.8 in WSW 0.9 mph 1 mph 93% 0 in 72 W/m2
14:37 56.8 °F 54.9 °F 29.8 in Calm   20 mph 93% 0 in 47 W/m2
14:42 57 °F 55 °F 29.8 in Calm     93% 0 in 84 W/m2
14:47 57 °F 55 °F 29.8 in Calm   1 mph 93% 0 in 118 W/m2
14:52 57 °F 54.7 °F 29.8 in Calm     92% 0 in 86 W/m2
14:57 57.2 °F 54.9 °F 29.8 in Calm   2 mph 92% 0 in 84 W/m2
15:02 57.2 °F 54.9 °F 29.8 in Calm     92% 0 in 84 W/m2
15:08 57.2 °F 54.9 °F 29.8 in Calm   2 mph 92% 0 in 91 W/m2
15:13 57.2 °F 54.7 °F 29.8 in Calm     91% 0 in 91 W/m2
15:18 57.2 °F 54.7 °F 29.8 in Calm     91% 0 in 91 W/m2
15:23 57.2 °F 54.7 °F 29.8 in Calm   13 mph 91% 0 in 56 W/m2
15:28 57 °F 54.7 °F 29.8 in Calm     92% 0 in 33 W/m2
15:33 56.8 °F 54.5 °F 29.8 in Calm   13 mph 92% 0.01 in 26 W/m2
15:38 56.7 °F 54.7 °F 29.8 in Calm   8 mph 93% 0.02 in 19 W/m2
15:43 56.3 °F 54.3 °F 29.9 in Calm     93% 0.02 in 26 W/m2
15:48 56.1 °F 54.5 °F 29.8 in West 0.9 mph 1 mph 94% 0.02 in 28 W/m2
15:53 56.3 °F 54.7 °F 29.9 in Calm   2 mph 94% 0.02 in 33 W/m2
15:58 56.5 °F 54.9 °F 29.9 in NW 0.9 mph 8 mph 94% 0.02 in 33 W/m2
16:03 56.7 °F 54.7 °F 29.9 in Calm     93% 0.02 in 42 W/m2
16:08 56.7 °F 54.7 °F 29.9 in Calm     93% 0.02 in 32 W/m2
16:13 56.7 °F 54.3 °F 29.9 in Calm   15 mph 92% 0.02 in 30 W/m2
16:18 56.8 °F 54.5 °F 29.9 in Calm   3 mph 92% 0.02 in 42 W/m2
16:23 56.8 °F 54.3 °F 29.9 in Calm   17 mph 91% 0.02 in 33 W/m2
16:28 56.8 °F 54.3 °F 29.9 in Calm     91% 0.02 in 26 W/m2
16:33 57 °F 54.1 °F 29.9 in Calm   17 mph 90% 0.01 in 26 W/m2
16:38 57 °F 54.1 °F 29.9 in Calm   1 mph 90% 0 in 33 W/m2
16:43 56.8 °F 54 °F 29.9 in Calm   11 mph 90% 0 in 21 W/m2
16:49 56.8 °F 54 °F 29.9 in Calm     90% 0 in 16 W/m2
16:54 56.8 °F 54 °F 29.9 in Calm     90% 0 in 19 W/m2
16:59 57 °F 54.1 °F 29.9 in Calm   1 mph 90% 0 in 12 W/m2
17:04 57 °F 53.8 °F 29.9 in Calm     89% 0 in 12 W/m2
17:09 57 °F 53.8 °F 29.9 in Calm   6 mph 89% 0 in 11 W/m2
17:14 57 °F 53.4 °F 29.9 in Calm     88% 0 in 11 W/m2
17:19 56.8 °F 53.2 °F 29.9 in Calm   1 mph 88% 0 in 7 W/m2
17:24 56.8 °F 53.2 °F 29.9 in Calm   1 mph 88% 0 in 5 W/m2
17:29 56.8 °F 53.1 °F 29.9 in Calm   2 mph 87% 0 in 0 W/m2
17:34 56.8 °F 52.3 °F 29.9 in Calm   7 mph 85% 0 in 0 W/m2
17:39 56.8 °F 52.3 °F 29.9 in Calm     85% 0 in 0 W/m2
17:44 56.8 °F 52.3 °F 29.9 in Calm     85% 0 in 0 W/m2
17:49 56.7 °F 52.2 °F 29.9 in Calm     85% 0 in 0 W/m2
17:54 56.5 °F 52 °F 29.9 in Calm     85% 0 in 0 W/m2
17:59 56.5 °F 52 °F 29.9 in West 10.1 mph 10 mph 85% 0 in 0 W/m2
18:04 56.5 °F 52 °F 29.9 in Calm   1 mph 85% 0 in 0 W/m2
18:09 56.1 °F 52 °F 29.9 in Calm     86% 0 in 0 W/m2
18:14 55.9 °F 52.2 °F 29.9 in Calm     87% 0 in 0 W/m2
18:19 55.9 °F 52.2 °F 29.9 in Calm     87% 0 in 0 W/m2
18:24 55.8 °F 52 °F 29.9 in Calm     87% 0 in 0 W/m2
18:29 55.8 °F 52.3 °F 29.9 in Calm     88% 0 in 0 W/m2
18:34 55.8 °F 52.3 °F 29.9 in Calm     88% 0 in 0 W/m2
18:39 55.6 °F 52.2 °F 29.9 in Calm     88% 0 in 0 W/m2
18:44 55.6 °F 52.2 °F 29.9 in Calm     88% 0 in 0 W/m2
18:49 55.4 °F 52.2 °F 29.9 in Calm   14 mph 89% 0 in 0 W/m2
18:54 55.4 °F 52.2 °F 29.9 in Calm     89% 0 in 0 W/m2
18:59 55.2 °F 51.8 °F 29.9 in Calm   14 mph 88% 0 in 0 W/m2
19:04 55.2 °F 51.8 °F 29.9 in Calm     88% 0 in 0 W/m2
19:09 55.2 °F 52 °F 29.9 in Calm   14 mph 89% 0 in 0 W/m2
19:14 55 °F 51.6 °F 29.9 in Calm   2 mph 88% 0 in 0 W/m2
19:20 55 °F 51.6 °F 29.9 in Calm     88% 0 in 0 W/m2
19:25 55 °F 51.6 °F 29.9 in Calm     88% 0 in 0 W/m2
19:30 55 °F 51.6 °F 29.9 in Calm   2 mph 88% 0 in 0 W/m2
19:35 55 °F 51.6 °F 29.9 in Calm     88% 0 in 0 W/m2
19:40 54.9 °F 51.4 °F 29.9 in Calm     88% 0 in 0 W/m2
19:45 54.9 °F 51.4 °F 29.9 in Calm     88% 0 in 0 W/m2
19:50 54.9 °F 51.4 °F 29.9 in Calm     88% 0 in 0 W/m2
19:55 54.9 °F 51.6 °F 29.9 in Calm     89% 0 in 0 W/m2
20:00 54.7 °F 51.4 °F 29.9 in Calm     89% 0 in 0 W/m2
20:05 54.3 °F 51.1 °F 29.9 in Calm     89% 0 in 0 W/m2
20:10 54.1 °F 51.3 °F 29.9 in Calm     90% 0.01 in 0 W/m2
20:15 54 °F 51.4 °F 30 in Calm     91% 0.01 in 0 W/m2
20:20 53.8 °F 51.3 °F 30 in Calm     91% 0.01 in 0 W/m2
20:25 53.6 °F 51.1 °F 29.9 in Calm     91% 0.02 in 0 W/m2
20:30 53.2 °F 50.7 °F 30 in Calm     91% 0.02 in 0 W/m2
20:35 53.2 °F 50.7 °F 29.9 in Calm     91% 0.02 in 0 W/m2
20:40 53.1 °F 50.5 °F 30 in Calm     91% 0.02 in 0 W/m2
20:45 53.1 °F 50.5 °F 30 in Calm     91% 0.02 in 0 W/m2
20:50 52.9 °F 50.4 °F 30 in Calm     91% 0.02 in 0 W/m2
20:55 52.5 °F 50 °F 29.9 in Calm     91% 0.02 in 0 W/m2
21:00 52.3 °F 49.8 °F 30 in Calm     91% 0.02 in 0 W/m2
21:05 52.2 °F 49.8 °F 30 in Calm     92% 0.02 in 0 W/m2
21:10 52 °F 49.5 °F 30 in Calm     91% 0.01 in 0 W/m2
21:15 52 °F 49.5 °F 30 in Calm     91% 0.01 in 0 W/m2
21:20 51.6 °F 49.1 °F 30 in Calm     91% 0.02 in 0 W/m2
21:25 51.4 °F 48.6 °F 30 in Calm     90% 0.01 in 0 W/m2
21:30 51.4 °F 48.6 °F 30 in Calm     90% 0.01 in 0 W/m2
21:35 51.3 °F 48.4 °F 30 in Calm     90% 0.01 in 0 W/m2
21:40 51.3 °F 48.4 °F 30 in Calm     90% 0.02 in 0 W/m2
21:45 51.1 °F 48.6 °F 30 in Calm     91% 0.02 in 0 W/m2
21:50 51.1 °F 48.6 °F 30 in Calm     91% 0.02 in 0 W/m2
21:56 51.1 °F 48.9 °F 30 in Calm     92% 0.02 in 0 W/m2
22:01 51.1 °F 48.9 °F 30 in Calm     92% 0.02 in 0 W/m2
22:06 51.1 °F 48.9 °F 30 in Calm     92% 0.02 in 0 W/m2
22:11 51.1 °F 48.9 °F 30 in Calm     92% 0.02 in 0 W/m2
22:16 51.1 °F 48.9 °F 29.9 in Calm     92% 0.02 in 0 W/m2
22:21 51.1 °F 48.9 °F 30 in Calm     92% 0.02 in 0 W/m2
22:26 51.1 °F 48.9 °F 30 in Calm     92% 0.02 in 0 W/m2
22:31 51.1 °F 48.9 °F 29.9 in Calm     92% 0.02 in 0 W/m2
22:36 50.9 °F 48.7 °F 30 in Calm     92% 0.02 in 0 W/m2
22:41 50.7 °F 48.6 °F 30 in Calm     92% 0.02 in 0 W/m2
22:46 50.7 °F 48.6 °F 30 in Calm     92% 0.02 in 0 W/m2
22:51 50.5 °F 48.4 °F 30 in Calm     92% 0.02 in 0 W/m2
22:56 50.5 °F 48.6 °F 30 in Calm     93% 0.01 in 0 W/m2
23:02 50.5 °F 48.6 °F 30 in Calm     93% 0.01 in 0 W/m2
23:07 50.4 °F 48.4 °F 29.9 in Calm     93% 0.02 in 0 W/m2
23:12 50.4 °F 48.4 °F 29.9 in Calm     93% 0.02 in 0 W/m2
23:17 50.4 °F 48.4 °F 29.9 in Calm     93% 0.02 in 0 W/m2
23:22 50.2 °F 48.2 °F 29.9 in Calm     93% 0.02 in 0 W/m2
23:27 50.2 °F 48.2 °F 29.9 in Calm     93% 0.02 in 0 W/m2
23:32 50.2 °F 48.2 °F 29.9 in Calm     93% 0.02 in 0 W/m2
23:37 50 °F 47.8 °F 29.9 in Calm     92% 0.01 in 0 W/m2
23:42 50 °F 47.8 °F 29.9 in Calm     92% 0.01 in 0 W/m2
23:47 49.8 °F 47.8 °F 29.9 in Calm     93% 0.01 in 0 W/m2
23:52 49.8 °F 47.8 °F 29.9 in Calm     93% 0.01 in 0 W/m2
23:57 49.8 °F 47.8 °F 29.9 in Calm     93% 0.01 in 0 W/m2
Juneau County Weather
Compliments of Weather Underground - 4 mb